Time;durP1;ratioP1;P1;durP2;ratioP2;P2;SDS_P1;SDS_P2;PMS_P1;PMS_P2;Temp;Humidity;BMP_temperature;BMP_pressure;BME280_temperature;BME280_humidity;BME280_pressure;Samples;Min_cycle;Max_cycle;Signal;HPM_P1;HPM_P2
2021/09/11 00:00:51;;;;;;;10.77;9.00;;;;;;;;;;5020190;28;20921;-62
2021/09/11 00:03:17;;;;;;;15.63;8.30;;;;;;;;;;5020083;28;20440;-62
2021/09/11 00:05:44;;;;;;;11.43;9.60;;;;;;;;;;5021437;28;20406;-61
2021/09/11 00:08:10;;;;;;;12.67;10.00;;;;;;;;;;5020967;28;20832;-61
2021/09/11 00:10:36;;;;;;;11.27;9.60;;;;;;;;;;5021481;28;20966;-63
2021/09/11 00:13:03;;;;;;;12.47;9.90;;;;;;;;;;5019799;28;20541;-62
2021/09/11 00:15:32;;;;;;;14.93;9.37;;;;;;;;;;5020578;28;20956;-60
2021/09/11 00:18:01;;;;;;;15.17;11.37;;;;;;;;;;5017948;28;20522;-62
2021/09/11 00:20:28;;;;;;;13.70;10.50;;;;;;;;;;5019712;28;20404;-58
2021/09/11 00:22:55;;;;;;;13.37;11.00;;;;;;;;;;5018591;28;20450;-62
2021/09/11 00:25:21;;;;;;;12.53;10.90;;;;;;;;;;5018987;28;20412;-58
2021/09/11 00:27:47;;;;;;;16.20;12.20;;;;;;;;;;5019105;28;20442;-58
2021/09/11 00:30:13;;;;;;;14.47;11.77;;;;;;;;;;5021858;28;20399;-62
2021/09/11 00:32:43;;;;;;;14.43;10.80;;;;;;;;;;5020802;28;20450;-62
2021/09/11 00:35:19;;;;;;;12.93;11.60;;;;;;;;;;5021954;28;21028;-62
2021/09/11 00:37:45;;;;;;;14.13;11.87;;;;;;;;;;5020540;28;20911;-62
2021/09/11 00:40:12;;;;;;;14.03;11.50;;;;;;;;;;5022477;28;20427;-62
2021/09/11 00:42:41;;;;;;;14.93;12.03;;;;;;;;;;5018799;28;20493;-62
2021/09/11 00:45:07;;;;;;;13.70;11.40;;;;;;;;;;5022139;28;20847;-62
2021/09/11 00:47:33;;;;;;;19.87;11.73;;;;;;;;;;5020527;28;20434;-62
2021/09/11 00:50:00;;;;;;;13.07;11.47;;;;;;;;;;5021759;28;20404;-62
2021/09/11 00:52:26;;;;;;;19.53;13.93;;;;;;;;;;5019375;28;20970;-62
2021/09/11 00:54:52;;;;;;;13.67;11.40;;;;;;;;;;5021507;28;20458;-62
2021/09/11 00:57:19;;;;;;;16.90;12.40;;;;;;;;;;5020632;28;20502;-62
2021/09/11 00:59:45;;;;;;;14.33;12.53;;;;;;;;;;5021078;28;20410;-62
2021/09/11 01:02:11;;;;;;;17.53;13.17;;;;;;;;;;5020529;28;20428;-62
2021/09/11 01:04:37;;;;;;;14.30;12.70;;;;;;;;;;5021123;28;20410;-64
2021/09/11 01:07:03;;;;;;;15.73;13.17;;;;;;;;;;5012123;28;20470;-62
2021/09/11 01:09:30;;;;;;;18.93;12.63;;;;;;;;;;5012748;28;20436;-62
2021/09/11 01:11:56;;;;;;;15.40;13.70;;;;;;;;;;5020501;28;20935;-62
2021/09/11 01:14:22;;;;;;;19.23;14.20;;;;;;;;;;5020671;28;20798;-62
2021/09/11 01:16:48;;;;;;;17.63;14.43;;;;;;;;;;5020666;28;20924;-62
2021/09/11 01:19:14;;;;;;;22.97;15.10;;;;;;;;;;5021399;28;20400;-62
2021/09/11 01:21:40;;;;;;;19.73;15.40;;;;;;;;;;5020266;28;20443;-62
2021/09/11 01:24:06;;;;;;;24.83;16.07;;;;;;;;;;5018442;28;20493;-62
2021/09/11 01:26:32;;;;;;;23.10;17.87;;;;;;;;;;5013695;28;20435;-62
2021/09/11 01:28:59;;;;;;;19.33;15.43;;;;;;;;;;5014531;28;20399;-62
2021/09/11 01:31:31;;;;;;;23.73;16.33;;;;;;;;;;5013434;28;20435;-62
2021/09/11 01:33:57;;;;;;;25.07;18.33;;;;;;;;;;5014292;28;20509;-62
2021/09/11 01:36:24;;;;;;;23.43;17.40;;;;;;;;;;5012749;28;20530;-62
2021/09/11 01:38:50;;;;;;;22.03;17.13;;;;;;;;;;5014348;28;20400;-62
2021/09/11 01:41:16;;;;;;;20.47;16.70;;;;;;;;;;5013714;28;20434;-62
2021/09/11 01:43:42;;;;;;;21.20;16.57;;;;;;;;;;5014563;28;20426;-62
2021/09/11 01:46:08;;;;;;;20.70;15.83;;;;;;;;;;5013295;28;20400;-62
2021/09/11 01:48:34;;;;;;;22.93;17.00;;;;;;;;;;5014231;28;20400;-62
2021/09/11 01:51:00;;;;;;;21.07;15.80;;;;;;;;;;5013212;28;20435;-61
2021/09/11 01:53:26;;;;;;;19.40;16.80;;;;;;;;;;4994320;28;20915;-61
2021/09/11 01:55:52;;;;;;;27.00;18.33;;;;;;;;;;4994616;28;20798;-63
2021/09/11 01:58:18;;;;;;;19.53;15.90;;;;;;;;;;5009592;28;20455;-62
2021/09/11 02:00:44;;;;;;;20.90;16.87;;;;;;;;;;5003377;28;20858;-62
2021/09/11 02:03:10;;;;;;;19.17;16.20;;;;;;;;;;5007438;28;20452;-62
2021/09/11 02:05:37;;;;;;;25.80;16.53;;;;;;;;;;5014302;28;20760;-62
2021/09/11 02:08:03;;;;;;;20.30;17.70;;;;;;;;;;5011049;28;20427;-62
2021/09/11 02:10:30;;;;;;;21.57;16.63;;;;;;;;;;5014290;28;20559;-62
2021/09/11 02:12:57;;;;;;;21.07;16.90;;;;;;;;;;5012816;28;20513;-61
2021/09/11 02:15:23;;;;;;;22.67;16.70;;;;;;;;;;5013714;28;20940;-62
2021/09/11 02:17:49;;;;;;;23.37;18.60;;;;;;;;;;5012598;28;20454;-62
2021/09/11 02:20:15;;;;;;;23.40;18.33;;;;;;;;;;5013638;28;20396;-62
2021/09/11 02:22:41;;;;;;;25.40;18.40;;;;;;;;;;5012642;28;20462;-62
2021/09/11 02:25:08;;;;;;;20.50;17.17;;;;;;;;;;5014003;28;20400;-61
2021/09/11 02:27:35;;;;;;;20.83;16.87;;;;;;;;;;5012892;28;20489;-61
2021/09/11 02:30:01;;;;;;;21.67;16.60;;;;;;;;;;5012813;28;20428;-62
2021/09/11 02:32:28;;;;;;;23.63;18.40;;;;;;;;;;5012573;28;20452;-63
2021/09/11 02:34:54;;;;;;;21.63;17.03;;;;;;;;;;5013343;28;20545;-62
2021/09/11 02:37:20;;;;;;;29.30;19.37;;;;;;;;;;5012612;28;20482;-62
2021/09/11 02:39:46;;;;;;;18.63;16.23;;;;;;;;;;5013609;28;20400;-61
2021/09/11 02:42:12;;;;;;;17.70;14.97;;;;;;;;;;5012566;28;20399;-62
2021/09/11 02:44:39;;;;;;;20.20;17.37;;;;;;;;;;5013073;28;20427;-59
2021/09/11 02:47:05;;;;;;;16.60;13.60;;;;;;;;;;4995659;28;20404;-57
2021/09/11 02:49:31;;;;;;;16.40;14.00;;;;;;;;;;5012376;28;20435;-58
2021/09/11 02:51:57;;;;;;;17.20;14.80;;;;;;;;;;5013382;28;20403;-57
2021/09/11 02:54:23;;;;;;;15.50;12.07;;;;;;;;;;5012332;28;20510;-62
2021/09/11 02:56:49;;;;;;;17.17;12.03;;;;;;;;;;5013482;28;20495;-62
2021/09/11 02:59:15;;;;;;;16.20;12.30;;;;;;;;;;5012521;28;20455;-62
2021/09/11 03:01:41;;;;;;;16.93;11.77;;;;;;;;;;5011731;28;20948;-62
2021/09/11 03:04:07;;;;;;;12.80;11.33;;;;;;;;;;5011819;28;20459;-62
2021/09/11 03:06:33;;;;;;;14.13;11.60;;;;;;;;;;5013267;28;20435;-62
2021/09/11 03:08:59;;;;;;;15.47;11.67;;;;;;;;;;5010884;28;20908;-62
2021/09/11 03:11:25;;;;;;;14.50;12.33;;;;;;;;;;5012792;28;20517;-62
2021/09/11 03:13:51;;;;;;;13.83;11.30;;;;;;;;;;5015798;28;20817;-62
2021/09/11 03:16:17;;;;;;;13.73;11.87;;;;;;;;;;5016967;28;20396;-62
2021/09/11 03:18:43;;;;;;;12.77;11.47;;;;;;;;;;5015930;28;20503;-62
2021/09/11 03:21:09;;;;;;;11.60;10.43;;;;;;;;;;5017161;28;20403;-62
2021/09/11 03:23:35;;;;;;;12.60;11.03;;;;;;;;;;5016089;28;20505;-62
2021/09/11 03:26:01;;;;;;;11.20;10.07;;;;;;;;;;5016717;28;20403;-62
2021/09/11 03:28:28;;;;;;;16.60;9.37;;;;;;;;;;5015826;28;20772;-62
2021/09/11 03:30:54;;;;;;;10.93;8.73;;;;;;;;;;5007241;28;20789;-62
2021/09/11 03:33:20;;;;;;;11.10;8.93;;;;;;;;;;5012350;28;20462;-62
2021/09/11 03:35:46;;;;;;;9.17;7.70;;;;;;;;;;5015072;28;20964;-62
2021/09/11 03:38:12;;;;;;;10.03;8.60;;;;;;;;;;5014629;28;20462;-62
2021/09/11 03:40:38;;;;;;;9.40;7.60;;;;;;;;;;5016513;28;20399;-62
2021/09/11 03:43:05;;;;;;;9.13;7.57;;;;;;;;;;5016027;28;20861;-62
2021/09/11 03:45:31;;;;;;;8.03;7.23;;;;;;;;;;5015393;28;20474;-61
2021/09/11 03:47:57;;;;;;;8.97;6.73;;;;;;;;;;5015477;28;20411;-62
2021/09/11 03:50:23;;;;;;;8.70;7.40;;;;;;;;;;5016489;28;20408;-62
2021/09/11 03:52:49;;;;;;;10.80;7.13;;;;;;;;;;5015457;28;20426;-61
2021/09/11 03:55:15;;;;;;;10.90;7.87;;;;;;;;;;5018716;28;20455;-62
2021/09/11 03:57:41;;;;;;;9.83;7.07;;;;;;;;;;5022916;28;20472;-61
2021/09/11 04:00:07;;;;;;;9.53;7.27;;;;;;;;;;5022373;28;20975;-61
2021/09/11 04:02:33;;;;;;;8.70;7.67;;;;;;;;;;5022154;28;20439;-61
2021/09/11 04:04:59;;;;;;;8.07;6.90;;;;;;;;;;5021583;28;20427;-62
2021/09/11 04:07:25;;;;;;;7.83;6.60;;;;;;;;;;5022633;28;20404;-62
2021/09/11 04:09:51;;;;;;;8.90;7.20;;;;;;;;;;5021932;28;20515;-62
2021/09/11 04:12:18;;;;;;;8.97;7.13;;;;;;;;;;5014772;28;20435;-61
2021/09/11 04:14:44;;;;;;;9.17;6.73;;;;;;;;;;5012690;28;20890;-61
2021/09/11 04:17:10;;;;;;;7.53;6.83;;;;;;;;;;5015195;28;20447;-62
2021/09/11 04:19:36;;;;;;;9.47;7.40;;;;;;;;;;5020255;28;20774;-62
2021/09/11 04:22:02;;;;;;;8.50;6.80;;;;;;;;;;5021283;28;20885;-59
2021/09/11 04:24:28;;;;;;;10.13;7.20;;;;;;;;;;5019153;28;20440;-61
2021/09/11 04:26:54;;;;;;;9.13;6.93;;;;;;;;;;5020661;28;20843;-59
2021/09/11 04:29:20;;;;;;;8.27;7.20;;;;;;;;;;5019831;28;20439;-61
2021/09/11 04:31:46;;;;;;;9.83;7.77;;;;;;;;;;5020361;28;20400;-60
2021/09/11 04:34:13;;;;;;;8.80;7.30;;;;;;;;;;5018185;28;20654;-61
2021/09/11 04:36:39;;;;;;;9.60;7.47;;;;;;;;;;5019359;28;20418;-60
2021/09/11 04:39:05;;;;;;;8.07;7.23;;;;;;;;;;5010408;28;20424;-61
2021/09/11 04:41:31;;;;;;;9.40;7.73;;;;;;;;;;5001441;28;20393;-61
2021/09/11 04:43:57;;;;;;;11.10;7.73;;;;;;;;;;5000316;28;20452;-57
2021/09/11 04:46:23;;;;;;;8.47;7.67;;;;;;;;;;5001494;28;20448;-61
2021/09/11 04:48:49;;;;;;;10.43;7.83;;;;;;;;;;5006730;28;20427;-60
2021/09/11 04:51:15;;;;;;;10.53;8.80;;;;;;;;;;5021354;28;20415;-60
2021/09/11 04:53:41;;;;;;;8.77;7.90;;;;;;;;;;5019801;28;20535;-60
2021/09/11 04:56:07;;;;;;;11.47;8.87;;;;;;;;;;5023423;28;20455;-58
2021/09/11 04:58:33;;;;;;;9.80;8.80;;;;;;;;;;5022366;28;20424;-58
2021/09/11 05:00:59;;;;;;;12.80;8.30;;;;;;;;;;5019420;28;20465;-60
2021/09/11 05:03:26;;;;;;;8.67;7.47;;;;;;;;;;5000158;28;20460;-59
2021/09/11 05:05:54;;;;;;;10.60;8.53;;;;;;;;;;5018871;28;20403;-59
2021/09/11 05:08:21;;;;;;;9.73;7.20;;;;;;;;;;5016318;28;20474;-60
2021/09/11 05:10:47;;;;;;;10.03;7.93;;;;;;;;;;5017904;28;20795;-62
2021/09/11 05:13:14;;;;;;;8.20;7.37;;;;;;;;;;5016781;28;20455;-61
2021/09/11 05:15:40;;;;;;;9.10;7.73;;;;;;;;;;5000796;28;20468;-59
2021/09/11 05:18:06;;;;;;;8.90;8.00;;;;;;;;;;4998424;28;20405;-60
2021/09/11 05:20:32;;;;;;;8.70;7.77;;;;;;;;;;5017069;28;20453;-61
2021/09/11 05:22:59;;;;;;;9.80;7.93;;;;;;;;;;5021038;28;20427;-61
2021/09/11 05:25:25;;;;;;;8.50;7.50;;;;;;;;;;5019448;28;20435;-62
2021/09/11 05:27:51;;;;;;;9.73;7.57;;;;;;;;;;5017247;28;20455;-62
2021/09/11 05:30:18;;;;;;;8.13;6.60;;;;;;;;;;5018478;28;20435;-62
2021/09/11 05:32:44;;;;;;;8.53;7.20;;;;;;;;;;5001188;28;20435;-62
2021/09/11 05:35:10;;;;;;;12.13;8.37;;;;;;;;;;5018414;28;20476;-64
2021/09/11 05:37:37;;;;;;;7.27;6.57;;;;;;;;;;5021325;28;20412;-62
2021/09/11 05:40:03;;;;;;;7.77;7.07;;;;;;;;;;5008180;28;20428;-62
2021/09/11 05:42:29;;;;;;;8.67;6.47;;;;;;;;;;5001171;28;20450;-63
2021/09/11 05:44:58;;;;;;;10.07;6.70;;;;;;;;;;5005616;28;20442;-62
2021/09/11 05:47:24;;;;;;;8.43;7.53;;;;;;;;;;5001330;28;20440;-62
2021/09/11 05:49:50;;;;;;;8.60;6.77;;;;;;;;;;5011704;28;20435;-61
2021/09/11 05:52:16;;;;;;;8.70;6.67;;;;;;;;;;5017815;28;20406;-62
2021/09/11 05:54:42;;;;;;;8.70;7.23;;;;;;;;;;5010074;28;20535;-62
2021/09/11 05:57:08;;;;;;;8.10;6.77;;;;;;;;;;5001307;28;20409;-62
2021/09/11 05:59:34;;;;;;;9.60;7.57;;;;;;;;;;5009507;28;20424;-62
2021/09/11 06:02:00;;;;;;;10.30;8.13;;;;;;;;;;5013177;28;21017;-62
2021/09/11 06:04:26;;;;;;;8.50;7.63;;;;;;;;;;5008170;28;20473;-62
2021/09/11 06:06:54;;;;;;;8.43;6.53;;;;;;;;;;5020683;28;20438;-62
2021/09/11 06:09:20;;;;;;;8.60;7.13;;;;;;;;;;5012595;28;20439;-62
2021/09/11 06:11:46;;;;;;;8.40;7.50;;;;;;;;;;5000825;28;20409;-62
2021/09/11 06:14:12;;;;;;;9.70;7.37;;;;;;;;;;5005603;28;20544;-62
2021/09/11 06:16:38;;;;;;;6.70;5.87;;;;;;;;;;5020649;28;20498;-62
2021/09/11 06:19:04;;;;;;;9.30;7.37;;;;;;;;;;5016588;28;20482;-63
2021/09/11 06:21:30;;;;;;;10.20;8.00;;;;;;;;;;5000163;28;20444;-62
2021/09/11 06:23:56;;;;;;;9.17;7.43;;;;;;;;;;5001443;28;20445;-63
2021/09/11 06:26:22;;;;;;;9.87;7.20;;;;;;;;;;5019633;28;20408;-62
2021/09/11 06:28:49;;;;;;;8.00;6.80;;;;;;;;;;5018207;28;20400;-63
2021/09/11 06:31:15;;;;;;;10.10;7.73;;;;;;;;;;4999507;28;20409;-62
2021/09/11 06:33:41;;;;;;;8.03;7.17;;;;;;;;;;4998117;28;20993;-62
2021/09/11 06:36:10;;;;;;;10.27;7.23;;;;;;;;;;4999287;28;20558;-63
2021/09/11 06:38:36;;;;;;;8.50;7.60;;;;;;;;;;4996459;28;20408;-60
2021/09/11 06:41:02;;;;;;;7.77;6.97;;;;;;;;;;5013293;28;20419;-62
2021/09/11 06:43:28;;;;;;;7.70;6.90;;;;;;;;;;5013694;28;20831;-61
2021/09/11 06:45:54;;;;;;;9.50;7.93;;;;;;;;;;4994436;28;20428;-62
2021/09/11 06:48:20;;;;;;;9.30;7.93;;;;;;;;;;4993909;28;20909;-62
2021/09/11 06:50:46;;;;;;;7.57;6.10;;;;;;;;;;5006228;28;20498;-62
2021/09/11 06:53:12;;;;;;;10.53;7.60;;;;;;;;;;5012440;28;20455;-61
2021/09/11 06:55:38;;;;;;;11.23;7.43;;;;;;;;;;5012113;28;20463;-62
2021/09/11 06:58:04;;;;;;;13.53;8.83;;;;;;;;;;5013094;28;20407;-62
2021/09/11 07:00:30;;;;;;;8.40;6.00;;;;;;;;;;5003701;28;20452;-62
2021/09/11 07:02:56;;;;;;;7.07;6.13;;;;;;;;;;4993579;28;20428;-62
2021/09/11 07:05:22;;;;;;;7.80;6.77;;;;;;;;;;4993606;28;20479;-62
2021/09/11 07:07:48;;;;;;;7.87;6.70;;;;;;;;;;4993778;28;20781;-62
2021/09/11 07:10:14;;;;;;;7.50;6.30;;;;;;;;;;4993559;28;20433;-62
2021/09/11 07:12:40;;;;;;;9.40;6.27;;;;;;;;;;4993299;28;20426;-61
2021/09/11 07:15:07;;;;;;;6.40;5.03;;;;;;;;;;5001834;28;20541;-61
2021/09/11 07:17:33;;;;;;;8.00;5.83;;;;;;;;;;5012984;28;20491;-61
2021/09/11 07:19:59;;;;;;;8.20;7.40;;;;;;;;;;5010510;28;20451;-61
2021/09/11 07:22:25;;;;;;;7.67;6.30;;;;;;;;;;5012869;28;20430;-61
2021/09/11 07:24:51;;;;;;;7.53;6.00;;;;;;;;;;5009727;28;20423;-61
2021/09/11 07:27:17;;;;;;;7.03;5.80;;;;;;;;;;4993597;28;20404;-62
2021/09/11 07:29:44;;;;;;;6.70;5.50;;;;;;;;;;4994681;28;20412;-62
2021/09/11 07:32:10;;;;;;;6.77;6.07;;;;;;;;;;5012828;28;20469;-62
2021/09/11 07:34:36;;;;;;;6.77;5.33;;;;;;;;;;5011895;28;20467;-61
2021/09/11 07:37:02;;;;;;;5.43;4.87;;;;;;;;;;5012865;28;20924;-62
2021/09/11 07:39:28;;;;;;;5.57;4.73;;;;;;;;;;5012927;28;20512;-62
2021/09/11 07:41:54;;;;;;;6.23;4.87;;;;;;;;;;5011496;28;20435;-62
2021/09/11 07:44:20;;;;;;;6.40;5.30;;;;;;;;;;5012510;28;20431;-62
2021/09/11 07:46:46;;;;;;;8.30;5.60;;;;;;;;;;5011520;28;20434;-62
2021/09/11 07:49:12;;;;;;;8.10;6.20;;;;;;;;;;5012737;28;20568;-62
2021/09/11 07:51:38;;;;;;;6.40;5.50;;;;;;;;;;5011338;28;20838;-63
2021/09/11 07:54:04;;;;;;;5.57;5.03;;;;;;;;;;5009271;28;20801;-64
2021/09/11 07:56:30;;;;;;;5.87;5.27;;;;;;;;;;4997439;28;20954;-62
2021/09/11 07:58:56;;;;;;;10.93;5.40;;;;;;;;;;4996477;28;20500;-62
2021/09/11 08:01:22;;;;;;;6.73;5.27;;;;;;;;;;4996376;28;20459;-62
2021/09/11 08:03:48;;;;;;;7.53;5.60;;;;;;;;;;4996323;28;20504;-62
2021/09/11 08:06:16;;;;;;;6.03;4.77;;;;;;;;;;4996216;28;20846;-62
2021/09/11 08:08:42;;;;;;;6.37;5.77;;;;;;;;;;4996475;28;20431;-62
2021/09/11 08:11:08;;;;;;;7.50;5.77;;;;;;;;;;4996254;28;20480;-62
2021/09/11 08:13:34;;;;;;;5.17;4.50;;;;;;;;;;4996214;28;20439;-62
2021/09/11 08:16:00;;;;;;;7.67;5.47;;;;;;;;;;5004768;28;20883;-62
2021/09/11 08:18:27;;;;;;;6.57;4.70;;;;;;;;;;5015607;28;20408;-62
2021/09/11 08:20:53;;;;;;;5.50;4.77;;;;;;;;;;5015081;28;20511;-62
2021/09/11 08:23:19;;;;;;;5.83;4.80;;;;;;;;;;5015777;28;20434;-62
2021/09/11 08:25:46;;;;;;;6.90;5.13;;;;;;;;;;5006876;28;20925;-62
2021/09/11 08:28:13;;;;;;;6.97;6.27;;;;;;;;;;4996118;28;20470;-62
2021/09/11 08:30:39;;;;;;;5.00;4.50;;;;;;;;;;5002354;28;20435;-62
2021/09/11 08:33:05;;;;;;;6.00;5.40;;;;;;;;;;5015576;28;20493;-64
2021/09/11 08:35:31;;;;;;;6.77;4.93;;;;;;;;;;5014416;28;20462;-62
2021/09/11 08:37:57;;;;;;;5.83;5.10;;;;;;;;;;5015148;28;20403;-62
2021/09/11 08:40:23;;;;;;;5.67;4.70;;;;;;;;;;5014191;28;20430;-62
2021/09/11 08:42:49;;;;;;;5.13;4.63;;;;;;;;;;5015451;28;21012;-62
2021/09/11 08:45:15;;;;;;;5.80;4.40;;;;;;;;;;5014341;28;20470;-61
2021/09/11 08:47:43;;;;;;;5.40;4.37;;;;;;;;;;5015411;28;20869;-62
2021/09/11 08:50:09;;;;;;;10.03;4.77;;;;;;;;;;5014426;28;20422;-61
2021/09/11 08:52:35;;;;;;;5.67;4.40;;;;;;;;;;5015520;28;20959;-62
2021/09/11 08:55:01;;;;;;;4.97;4.17;;;;;;;;;;5014331;28;20459;-62
2021/09/11 08:57:30;;;;;;;5.20;4.70;;;;;;;;;;5015501;28;20880;-62
2021/09/11 08:59:57;;;;;;;6.00;5.40;;;;;;;;;;5013858;28;20434;-62
2021/09/11 09:02:24;;;;;;;5.73;5.23;;;;;;;;;;5011785;28;20794;-62
2021/09/11 09:04:51;;;;;;;5.30;4.37;;;;;;;;;;5014899;28;20412;-62
2021/09/11 09:07:40;;;;;;;4.40;4.00;;;;;;;;;;5013819;28;20470;-61
2021/09/11 09:10:07;;;;;;;5.13;4.50;;;;;;;;;;5013927;28;20411;-62
2021/09/11 09:12:34;;;;;;;5.90;4.73;;;;;;;;;;4995136;28;20838;-62
2021/09/11 09:15:02;;;;;;;5.83;4.80;;;;;;;;;;4998342;28;20549;-62
2021/09/11 09:17:38;;;;;;;5.13;4.53;;;;;;;;;;5014144;28;20463;-62
2021/09/11 09:20:10;;;;;;;5.27;4.50;;;;;;;;;;5014259;28;20772;-62
2021/09/11 09:22:36;;;;;;;6.77;5.40;;;;;;;;;;5014583;28;20423;-62
2021/09/11 09:25:03;;;;;;;7.70;5.67;;;;;;;;;;5014521;28;20399;-62
2021/09/11 09:27:29;;;;;;;8.57;4.93;;;;;;;;;;5013651;28;20522;-62
2021/09/11 09:30:00;;;;;;;6.53;5.57;;;;;;;;;;5013244;28;20431;-62
2021/09/11 09:32:36;;;;;;;7.00;5.67;;;;;;;;;;5013433;28;20463;-62
2021/09/11 09:35:15;;;;;;;7.37;5.07;;;;;;;;;;5002573;28;20501;-62
2021/09/11 09:37:52;;;;;;;5.63;4.87;;;;;;;;;;4994866;28;20388;-61
2021/09/11 09:40:31;;;;;;;5.43;4.67;;;;;;;;;;4995112;28;20459;-61
2021/09/11 09:42:57;;;;;;;6.27;5.60;;;;;;;;;;5014226;28;20416;-62
2021/09/11 09:45:30;;;;;;;6.10;4.80;;;;;;;;;;5013057;28;20892;-62
2021/09/11 09:48:03;;;;;;;7.93;5.37;;;;;;;;;;5013954;28;20910;-62
2021/09/11 09:50:34;;;;;;;5.80;4.97;;;;;;;;;;5013922;28;20399;-62
2021/09/11 09:53:00;;;;;;;7.00;5.50;;;;;;;;;;5013095;28;20530;-62
2021/09/11 09:55:26;;;;;;;6.40;5.20;;;;;;;;;;5013817;28;20454;-62
2021/09/11 09:57:52;;;;;;;5.97;4.80;;;;;;;;;;5012859;28;20445;-62
2021/09/11 10:00:18;;;;;;;5.67;4.93;;;;;;;;;;5013990;28;20868;-62
2021/09/11 10:02:44;;;;;;;5.87;4.70;;;;;;;;;;5011757;28;20948;-62
2021/09/11 10:05:14;;;;;;;5.27;4.77;;;;;;;;;;5013896;28;20952;-62
2021/09/11 10:07:59;;;;;;;6.70;5.10;;;;;;;;;;4999049;28;20456;-62
2021/09/11 10:10:32;;;;;;;8.17;5.40;;;;;;;;;;4994211;28;20889;-62
2021/09/11 10:13:08;;;;;;;5.40;4.80;;;;;;;;;;5010038;28;20982;-62
2021/09/11 10:15:35;;;;;;;8.43;5.60;;;;;;;;;;5013630;28;20577;-62
2021/09/11 10:18:02;;;;;;;5.43;4.90;;;;;;;;;;5012694;28;20438;-62
2021/09/11 10:20:29;;;;;;;6.93;5.20;;;;;;;;;;5012021;28;20477;-62
2021/09/11 10:23:13;;;;;;;6.73;4.90;;;;;;;;;;5012825;28;20868;-62
2021/09/11 10:25:40;;;;;;;5.30;4.80;;;;;;;;;;5014003;28;20399;-61
2021/09/11 10:28:21;;;;;;;7.60;5.03;;;;;;;;;;4996296;28;21051;-62
2021/09/11 10:31:04;;;;;;;6.43;5.03;;;;;;;;;;4993986;28;20436;-62
2021/09/11 10:33:50;;;;;;;6.73;5.00;;;;;;;;;;5011935;28;21062;-62
2021/09/11 10:36:22;;;;;;;6.77;5.50;;;;;;;;;;5012072;28;20601;-62
2021/09/11 10:38:51;;;;;;;5.47;4.60;;;;;;;;;;5013305;28;20399;-62
2021/09/11 10:41:17;;;;;;;6.00;5.40;;;;;;;;;;5012516;28;20756;-62
2021/09/11 10:44:05;;;;;;;5.37;4.40;;;;;;;;;;5013173;28;20419;-62
2021/09/11 10:46:57;;;;;;;5.90;5.10;;;;;;;;;;5009821;28;20466;-62
2021/09/11 10:49:26;;;;;;;6.33;5.10;;;;;;;;;;5007274;28;20419;-62
2021/09/11 10:52:02;;;;;;;5.00;4.50;;;;;;;;;;5008734;28;20947;-61
2021/09/11 10:54:30;;;;;;;4.60;4.10;;;;;;;;;;5008111;28;20467;-61
2021/09/11 10:56:59;;;;;;;6.57;5.10;;;;;;;;;;5012172;28;20430;-60
2021/09/11 10:59:25;;;;;;;10.40;6.23;;;;;;;;;;5011468;28;20461;-61
2021/09/11 11:01:59;;;;;;;5.43;4.63;;;;;;;;;;4998692;28;20959;-65
2021/09/11 11:04:25;;;;;;;7.33;5.40;;;;;;;;;;5012572;28;20475;-61
2021/09/11 11:06:55;;;;;;;6.33;5.40;;;;;;;;;;4994843;28;20431;-62
2021/09/11 11:09:21;;;;;;;5.80;4.50;;;;;;;;;;5013171;28;20903;-64
2021/09/11 11:11:48;;;;;;;7.90;5.03;;;;;;;;;;5012280;28;20558;-65
2021/09/11 11:14:14;;;;;;;5.07;4.57;;;;;;;;;;5012946;28;21035;-64
2021/09/11 11:16:53;;;;;;;5.90;5.13;;;;;;;;;;5013089;28;20944;-61
2021/09/11 11:19:20;;;;;;;9.07;6.00;;;;;;;;;;5023536;28;20423;-65
2021/09/11 11:22:03;;;;;;;5.20;4.57;;;;;;;;;;5012335;28;20506;-61
2021/09/11 11:24:30;;;;;;;4.67;3.90;;;;;;;;;;5013129;28;20407;-61
2021/09/11 11:26:58;;;;;;;6.10;5.07;;;;;;;;;;5009155;28;20501;-61
2021/09/11 11:29:25;;;;;;;5.00;4.50;;;;;;;;;;5011940;28;20444;-63
2021/09/11 11:31:52;;;;;;;6.13;4.83;;;;;;;;;;5014344;28;20857;-63
2021/09/11 11:34:18;;;;;;;5.90;4.70;;;;;;;;;;5014740;28;20463;-62
2021/09/11 11:37:10;;;;;;;5.20;4.30;;;;;;;;;;5015307;28;20949;-63
2021/09/11 11:39:40;;;;;;;5.70;4.60;;;;;;;;;;5011777;28;20415;-65
2021/09/11 11:42:08;;;;;;;4.20;3.70;;;;;;;;;;5014691;28;20446;-62
2021/09/11 11:44:41;;;;;;;5.67;4.77;;;;;;;;;;5011196;28;20427;-65
2021/09/11 11:47:12;;;;;;;4.70;4.10;;;;;;;;;;5015103;28;20514;-64
2021/09/11 11:49:40;;;;;;;4.60;3.87;;;;;;;;;;4998271;28;20479;-61
2021/09/11 11:52:06;;;;;;;5.87;4.20;;;;;;;;;;5014694;28;20435;-62
2021/09/11 11:54:34;;;;;;;4.87;4.20;;;;;;;;;;5015221;28;20450;-62
2021/09/11 11:57:06;;;;;;;5.27;4.27;;;;;;;;;;5015240;28;21003;-63
2021/09/11 11:59:32;;;;;;;4.90;4.40;;;;;;;;;;5016708;28;20438;-63
2021/09/11 12:01:58;;;;;;;5.77;4.23;;;;;;;;;;5013267;28;20419;-62
2021/09/11 12:04:24;;;;;;;5.73;4.20;;;;;;;;;;5016253;28;20454;-63
2021/09/11 12:06:52;;;;;;;4.97;4.47;;;;;;;;;;5015135;28;20427;-62
2021/09/11 12:09:19;;;;;;;7.97;4.00;;;;;;;;;;5016258;28;20410;-63
2021/09/11 12:11:50;;;;;;;5.53;4.30;;;;;;;;;;5010322;28;20932;-62
2021/09/11 12:14:16;;;;;;;5.40;4.03;;;;;;;;;;5011230;28;20440;-59
2021/09/11 12:16:44;;;;;;;6.27;4.57;;;;;;;;;;5001760;28;20431;-62
2021/09/11 12:19:12;;;;;;;5.27;4.40;;;;;;;;;;5011288;28;20464;-63
2021/09/11 12:21:39;;;;;;;5.87;4.30;;;;;;;;;;5005906;28;20784;-64
2021/09/11 12:24:05;;;;;;;5.50;4.27;;;;;;;;;;5012657;28;20458;-63
2021/09/11 12:26:32;;;;;;;6.40;4.67;;;;;;;;;;5007993;28;20403;-59
2021/09/11 12:29:05;;;;;;;4.77;4.10;;;;;;;;;;5015064;28;20423;-63
2021/09/11 12:31:33;;;;;;;8.40;4.40;;;;;;;;;;5016121;28;20438;-62
2021/09/11 12:34:01;;;;;;;6.63;4.90;;;;;;;;;;5013690;28;20497;-62
2021/09/11 12:36:27;;;;;;;6.83;5.53;;;;;;;;;;5015426;28;20967;-62
2021/09/11 12:38:54;;;;;;;6.10;5.30;;;;;;;;;;5014049;28;21326;-62
2021/09/11 12:41:21;;;;;;;6.50;5.13;;;;;;;;;;5015796;28;20804;-61
2021/09/11 12:43:47;;;;;;;10.50;9.27;;;;;;;;;;5013076;28;20447;-62
2021/09/11 12:46:25;;;;;;;10.50;5.97;;;;;;;;;;4997822;28;20439;-62
2021/09/11 12:48:51;;;;;;;7.90;5.70;;;;;;;;;;5013596;28;20431;-63
2021/09/11 12:51:17;;;;;;;8.83;6.13;;;;;;;;;;5016067;28;20409;-62
2021/09/11 12:53:43;;;;;;;6.50;5.43;;;;;;;;;;5013968;28;20530;-65
2021/09/11 12:56:09;;;;;;;6.00;5.40;;;;;;;;;;5014229;28;20479;-61
2021/09/11 12:58:35;;;;;;;5.20;4.47;;;;;;;;;;5013720;28;20427;-63
2021/09/11 13:01:01;;;;;;;6.60;4.83;;;;;;;;;;5014850;28;20422;-63
2021/09/11 13:03:27;;;;;;;6.10;4.20;;;;;;;;;;5013855;28;20455;-62
2021/09/11 13:05:53;;;;;;;7.97;5.67;;;;;;;;;;5013889;28;20443;-62
2021/09/11 13:08:19;;;;;;;6.93;5.40;;;;;;;;;;5011443;28;20526;-61
2021/09/11 13:10:47;;;;;;;6.83;4.87;;;;;;;;;;4998473;28;20529;-61
2021/09/11 13:13:13;;;;;;;5.00;3.80;;;;;;;;;;5012710;28;20959;-63
2021/09/11 13:15:39;;;;;;;4.43;3.57;;;;;;;;;;5012997;28;20466;-64
2021/09/11 13:18:05;;;;;;;5.53;3.40;;;;;;;;;;5014547;28;20843;-62
2021/09/11 13:20:31;;;;;;;8.17;4.90;;;;;;;;;;5011882;28;20506;-63
2021/09/11 13:22:57;;;;;;;4.10;3.40;;;;;;;;;;5014628;28;20455;-62
2021/09/11 13:25:23;;;;;;;3.80;3.30;;;;;;;;;;5013227;28;20455;-62
2021/09/11 13:27:49;;;;;;;4.17;3.47;;;;;;;;;;5014634;28;20403;-62
2021/09/11 13:30:15;;;;;;;6.27;4.20;;;;;;;;;;5013232;28;20494;-62
2021/09/11 13:32:41;;;;;;;4.90;3.77;;;;;;;;;;5014700;28;20990;-62
2021/09/11 13:35:07;;;;;;;5.20;4.57;;;;;;;;;;5012535;28;21001;-62
2021/09/11 13:37:34;;;;;;;4.80;3.80;;;;;;;;;;5014458;28;20426;-62
2021/09/11 13:40:00;;;;;;;4.60;3.90;;;;;;;;;;5013498;28;20435;-62
2021/09/11 13:42:26;;;;;;;4.50;3.70;;;;;;;;;;5013648;28;20451;-63
2021/09/11 13:44:53;;;;;;;5.70;3.73;;;;;;;;;;5012798;28;20900;-63
2021/09/11 13:47:19;;;;;;;5.87;3.73;;;;;;;;;;5013623;28;20423;-61
2021/09/11 13:49:45;;;;;;;6.63;4.80;;;;;;;;;;5013254;28;20431;-62
2021/09/11 13:52:11;;;;;;;6.20;4.73;;;;;;;;;;5014198;28;20420;-62
2021/09/11 13:54:42;;;;;;;5.67;4.60;;;;;;;;;;5011836;28;20469;-62
2021/09/11 13:57:08;;;;;;;5.23;4.00;;;;;;;;;;5013858;28;20400;-62
2021/09/11 13:59:37;;;;;;;6.17;4.03;;;;;;;;;;5012879;28;20427;-62
2021/09/11 14:02:03;;;;;;;5.10;4.43;;;;;;;;;;5013840;28;20407;-62
2021/09/11 14:04:29;;;;;;;5.33;4.20;;;;;;;;;;5012409;28;20785;-61
2021/09/11 14:06:55;;;;;;;4.60;3.70;;;;;;;;;;5014072;28;20792;-62
2021/09/11 14:09:22;;;;;;;6.07;4.40;;;;;;;;;;5012470;28;20435;-63
2021/09/11 14:11:48;;;;;;;5.27;3.73;;;;;;;;;;5013814;28;20430;-64
2021/09/11 14:14:14;;;;;;;5.87;4.40;;;;;;;;;;5012433;28;20443;-61
2021/09/11 14:16:40;;;;;;;5.90;4.33;;;;;;;;;;5011949;28;20434;-62
2021/09/11 14:19:06;;;;;;;5.10;4.20;;;;;;;;;;5010780;28;20403;-61
2021/09/11 14:21:32;;;;;;;5.70;4.70;;;;;;;;;;5013573;28;20478;-62
2021/09/11 14:23:58;;;;;;;5.60;3.83;;;;;;;;;;5012787;28;20986;-62
2021/09/11 14:26:24;;;;;;;5.27;4.17;;;;;;;;;;5012192;28;20481;-62
2021/09/11 14:28:50;;;;;;;6.30;4.27;;;;;;;;;;5013041;28;20423;-62
2021/09/11 14:31:16;;;;;;;5.53;3.80;;;;;;;;;;5012421;28;20462;-63
2021/09/11 14:33:42;;;;;;;6.67;4.43;;;;;;;;;;5013152;28;20463;-63
2021/09/11 14:36:09;;;;;;;6.07;4.27;;;;;;;;;;5012301;28;20917;-64